createdAt,value
2018-05-12T00:00:51.906Z,1011.42
2018-05-12T00:01:51.899Z,1011.41
2018-05-12T00:02:51.878Z,1011.41
2018-05-12T00:03:51.873Z,1011.40
2018-05-12T00:04:51.845Z,1011.40
2018-05-12T00:05:51.900Z,1011.40
2018-05-12T00:06:51.824Z,1011.38
2018-05-12T00:07:51.801Z,1011.41
2018-05-12T00:08:51.796Z,1011.40
2018-05-12T00:09:51.778Z,1011.36
2018-05-12T00:10:51.757Z,1011.38
2018-05-12T00:11:51.741Z,1011.31
2018-05-12T00:12:51.728Z,1011.33
2018-05-12T00:13:51.720Z,1011.31
2018-05-12T00:14:51.783Z,1011.32
2018-05-12T00:15:51.679Z,1011.33
2018-05-12T00:16:51.663Z,1011.29
2018-05-12T00:17:51.649Z,1011.30
2018-05-12T00:18:51.635Z,1011.29
2018-05-12T00:19:51.618Z,1011.29
2018-05-12T00:20:51.604Z,1011.30
2018-05-12T00:21:51.590Z,1011.25
2018-05-12T00:22:51.574Z,1011.27
2018-05-12T00:23:51.558Z,1011.23
2018-05-12T00:24:51.543Z,1011.23
2018-05-12T00:25:51.527Z,1011.27
2018-05-12T00:26:51.513Z,1011.22
2018-05-12T00:27:51.503Z,1011.22
2018-05-12T00:28:51.482Z,1011.23
2018-05-12T00:29:51.465Z,1011.19
2018-05-12T00:30:51.453Z,1011.18
2018-05-12T00:31:51.446Z,1011.21
2018-05-12T00:32:51.421Z,1011.23
2018-05-12T00:33:51.412Z,1011.17
2018-05-12T00:34:51.394Z,1011.18
2018-05-12T00:35:51.375Z,1011.20
2018-05-12T00:36:51.361Z,1011.17
2018-05-12T00:37:51.347Z,1011.15
2018-05-12T00:38:51.329Z,1011.14
2018-05-12T00:39:51.318Z,1011.14
2018-05-12T00:40:51.300Z,1011.12
2018-05-12T00:41:51.284Z,1011.13
2018-05-12T00:42:51.353Z,1011.14
2018-05-12T00:43:51.255Z,1011.13
2018-05-12T00:44:51.239Z,1011.20
2018-05-12T00:45:51.226Z,1011.18
2018-05-12T00:46:51.216Z,1011.17
2018-05-12T00:47:51.191Z,1011.17
2018-05-12T00:48:51.176Z,1011.17
2018-05-12T00:49:51.165Z,1011.14
2018-05-12T00:50:51.155Z,1011.12
2018-05-12T00:51:51.132Z,1011.15
2018-05-12T00:52:51.116Z,1011.17
2018-05-12T00:53:51.102Z,1011.13
2018-05-12T00:54:51.089Z,1011.13
2018-05-12T00:55:51.082Z,1011.10
2018-05-12T00:56:51.254Z,1011.09
2018-05-12T00:57:51.042Z,1011.09
2018-05-12T00:58:51.025Z,1011.09
2018-05-12T00:59:51.013Z,1011.06
2018-05-12T01:00:50.993Z,1011.06
2018-05-12T01:01:50.983Z,1011.04
2018-05-12T01:02:50.963Z,1011.03
2018-05-12T01:03:50.951Z,1011.03
2018-05-12T01:04:50.934Z,1010.99
2018-05-12T01:05:50.921Z,1011.02
2018-05-12T01:06:50.903Z,1011.07
2018-05-12T01:07:50.888Z,1011.03
2018-05-12T01:08:50.873Z,1011.03
2018-05-12T01:09:50.859Z,1011.03
2018-05-12T01:10:50.842Z,1011.00
2018-05-12T01:11:50.827Z,1010.96
2018-05-12T01:12:50.813Z,1010.97
2018-05-12T01:13:50.797Z,1010.99
2018-05-12T01:14:50.790Z,1010.99
2018-05-12T01:15:50.771Z,1010.95
2018-05-12T01:16:50.767Z,1010.97
2018-05-12T01:17:50.739Z,1010.92
2018-05-12T01:18:50.729Z,1010.97
2018-05-12T01:19:50.707Z,1010.95
2018-05-12T01:20:50.693Z,1010.93
2018-05-12T01:21:50.683Z,1010.91
2018-05-12T01:22:50.662Z,1010.90
2018-05-12T01:23:50.646Z,1010.87
2018-05-12T01:24:50.629Z,1010.91
2018-05-12T01:25:50.615Z,1010.89
2018-05-12T01:26:50.603Z,1010.92
2018-05-12T01:27:50.583Z,1010.90
2018-05-12T01:28:50.568Z,1010.90
2018-05-12T01:29:50.561Z,1010.92
2018-05-12T01:30:50.538Z,1010.88
2018-05-12T01:31:50.524Z,1010.89
2018-05-12T01:32:50.508Z,1010.90
2018-05-12T01:33:50.500Z,1010.89
2018-05-12T01:34:50.477Z,1010.88
2018-05-12T01:35:50.467Z,1010.85
2018-05-12T01:36:50.455Z,1010.85
2018-05-12T01:37:50.442Z,1010.83
2018-05-12T01:38:50.417Z,1010.83
2018-05-12T01:39:50.404Z,1010.84
2018-05-12T01:40:50.389Z,1010.82
2018-05-12T01:41:50.373Z,1010.81
2018-05-12T01:42:50.357Z,1010.80
2018-05-12T01:43:50.349Z,1010.81
2018-05-12T01:44:50.324Z,1010.80
2018-05-12T01:45:50.312Z,1010.81
2018-05-12T01:46:50.297Z,1010.82
2018-05-12T01:47:50.282Z,1010.81
2018-05-12T01:48:50.265Z,1010.81
2018-05-12T01:49:50.251Z,1010.86
2018-05-12T01:50:50.235Z,1010.82
2018-05-12T01:51:50.222Z,1010.84
2018-05-12T01:52:50.204Z,1010.87
2018-05-12T01:53:50.200Z,1010.90
2018-05-12T01:54:50.175Z,1010.92
2018-05-12T01:55:50.164Z,1010.93
2018-05-12T01:56:50.146Z,1010.93
2018-05-12T01:57:50.137Z,1010.89
2018-05-12T01:58:50.117Z,1010.91
2018-05-12T01:59:50.111Z,1010.90
2018-05-12T02:00:50.087Z,1010.91
2018-05-12T02:01:50.070Z,1010.92
2018-05-12T02:02:50.056Z,1010.89
2018-05-12T02:03:50.046Z,1010.91
2018-05-12T02:04:50.039Z,1010.89
2018-05-12T02:05:50.013Z,1010.91
2018-05-12T02:06:49.997Z,1010.94
2018-05-12T02:07:49.985Z,1010.91
2018-05-12T02:08:49.975Z,1010.91
2018-05-12T02:09:49.951Z,1010.94
2018-05-12T02:10:49.939Z,1010.95
2018-05-12T02:11:49.924Z,1010.92
2018-05-12T02:12:49.906Z,1010.96
2018-05-12T02:13:49.895Z,1010.97
2018-05-12T02:14:49.879Z,1010.95
2018-05-12T02:15:49.871Z,1010.95
2018-05-12T02:16:49.847Z,1010.97
2018-05-12T02:17:49.831Z,1010.99
2018-05-12T02:18:49.816Z,1010.96
2018-05-12T02:19:49.805Z,1011.01
2018-05-12T02:20:49.798Z,1011.01
2018-05-12T02:21:49.777Z,1011.00
2018-05-12T02:22:49.761Z,1011.01
2018-05-12T02:23:49.746Z,1011.00
2018-05-12T02:24:49.727Z,1010.98
2018-05-12T02:25:49.721Z,1010.97
2018-05-12T02:26:49.698Z,1011.01
2018-05-12T02:27:49.693Z,1011.00
2018-05-12T02:28:49.668Z,1011.02
2018-05-12T02:29:49.654Z,1011.00
2018-05-12T02:30:49.640Z,1010.97
2018-05-12T02:31:49.627Z,1010.95
2018-05-12T02:32:49.610Z,1011.00
2018-05-12T02:33:49.598Z,1010.96
2018-05-12T02:34:49.581Z,1010.94
2018-05-12T02:35:49.608Z,1010.93
2018-05-12T02:36:49.549Z,1010.94
2018-05-12T02:37:49.535Z,1010.92
2018-05-12T02:38:49.520Z,1010.90
2018-05-12T02:39:49.511Z,1010.94
2018-05-12T02:40:49.493Z,1010.89
2018-05-12T02:41:49.481Z,1010.92
2018-05-12T02:42:49.461Z,1010.87
2018-05-12T02:43:49.448Z,1010.89
2018-05-12T02:44:49.433Z,1010.88
2018-05-12T02:45:49.417Z,1010.90
2018-05-12T02:46:49.402Z,1010.92
2018-05-12T02:47:49.395Z,1010.87
2018-05-12T02:48:49.371Z,1010.85
2018-05-12T02:49:49.364Z,1010.90
2018-05-12T02:50:49.344Z,1010.86
2018-05-12T02:51:49.329Z,1010.88
2018-05-12T02:52:49.313Z,1010.86
2018-05-12T02:53:49.299Z,1010.84
2018-05-12T02:54:49.284Z,1010.83
2018-05-12T02:55:49.267Z,1010.83
2018-05-12T02:56:49.253Z,1010.81
2018-05-12T02:57:49.238Z,1010.77
2018-05-12T02:58:49.229Z,1010.81
2018-05-12T02:59:49.209Z,1010.78
2018-05-12T03:00:49.192Z,1010.78
2018-05-12T03:01:49.177Z,1010.79
2018-05-12T03:02:49.169Z,1010.78
2018-05-12T03:03:49.153Z,1010.74
2018-05-12T03:04:49.133Z,1010.78
2018-05-12T03:05:49.212Z,1010.76
2018-05-12T03:06:49.110Z,1010.78
2018-05-12T03:07:49.089Z,1010.79
2018-05-12T03:08:49.073Z,1010.80
2018-05-12T03:09:49.060Z,1010.73
2018-05-12T03:10:49.045Z,1010.83
2018-05-12T03:11:49.028Z,1010.81
2018-05-12T03:12:49.015Z,1010.80
2018-05-12T03:13:49.003Z,1010.80
2018-05-12T03:14:48.995Z,1010.78
2018-05-12T03:15:48.969Z,1010.78
2018-05-12T03:16:48.954Z,1010.77
2018-05-12T03:17:48.941Z,1010.74
2018-05-12T03:18:48.923Z,1010.80
2018-05-12T03:19:48.907Z,1010.78
2018-05-12T03:20:48.893Z,1010.77
2018-05-12T03:21:48.878Z,1010.81
2018-05-12T03:22:48.862Z,1010.74
2018-05-12T03:23:48.849Z,1010.78
2018-05-12T03:24:48.830Z,1010.77
2018-05-12T03:25:48.817Z,1010.75
2018-05-12T03:26:48.800Z,1010.76
2018-05-12T03:27:48.785Z,1010.79
2018-05-12T03:28:48.769Z,1010.78
2018-05-12T03:29:48.765Z,1010.79
2018-05-12T03:30:48.744Z,1010.81
2018-05-12T03:31:48.725Z,1010.77
2018-05-12T03:32:48.711Z,1010.80
2018-05-12T03:33:48.702Z,1010.79
2018-05-12T03:34:48.679Z,1010.79
2018-05-12T03:35:48.664Z,1010.77
2018-05-12T03:36:48.648Z,1010.79
2018-05-12T03:37:48.633Z,1010.79
2018-05-12T03:38:48.621Z,1010.76
2018-05-12T03:39:48.609Z,1010.76
2018-05-12T03:40:48.601Z,1010.78
2018-05-12T03:41:48.571Z,1010.76
2018-05-12T03:42:48.554Z,1010.77
2018-05-12T03:43:48.541Z,1010.79
2018-05-12T03:44:48.524Z,1010.79
2018-05-12T03:45:48.509Z,1010.76
2018-05-12T03:46:48.500Z,1010.77
2018-05-12T03:47:48.480Z,1010.77
2018-05-12T03:48:48.463Z,1010.78
2018-05-12T03:49:48.453Z,1010.80
2018-05-12T03:50:48.433Z,1010.79
2018-05-12T03:51:48.416Z,1010.81
2018-05-12T03:52:48.401Z,1010.78
2018-05-12T03:53:48.390Z,1010.81
2018-05-12T03:54:48.370Z,1010.85
2018-05-12T03:55:48.356Z,1010.83
2018-05-12T03:56:48.337Z,1010.81
2018-05-12T03:57:48.327Z,1010.82
2018-05-12T03:58:48.308Z,1010.81
2018-05-12T03:59:48.293Z,1010.86
2018-05-12T04:00:48.277Z,1010.90
2018-05-12T04:01:48.261Z,1010.88
2018-05-12T04:02:48.246Z,1010.90
2018-05-12T04:03:48.232Z,1010.93
2018-05-12T04:04:48.214Z,1010.91
2018-05-12T04:05:48.202Z,1010.89
2018-05-12T04:06:48.184Z,1010.92
2018-05-12T04:07:48.171Z,1010.92
2018-05-12T04:08:48.152Z,1010.88
2018-05-12T04:09:48.138Z,1010.91
2018-05-12T04:10:48.124Z,1010.92
2018-05-12T04:11:48.110Z,1010.98
2018-05-12T04:12:48.090Z,1010.94
2018-05-12T04:13:48.076Z,1010.98
2018-05-12T04:14:48.060Z,1011.00
2018-05-12T04:15:48.047Z,1010.94
2018-05-12T04:16:48.028Z,1010.95
2018-05-12T04:17:48.012Z,1010.95
2018-05-12T04:18:47.997Z,1010.97
2018-05-12T04:19:47.991Z,1010.94
2018-05-12T04:20:47.965Z,1011.00
2018-05-12T04:21:47.950Z,1010.98
2018-05-12T04:22:47.936Z,1010.96
2018-05-12T04:23:47.921Z,1010.97
2018-05-12T04:24:47.904Z,1010.96
2018-05-12T04:25:47.888Z,1010.95
2018-05-12T04:26:47.874Z,1010.96
2018-05-12T04:27:47.862Z,1010.96
2018-05-12T04:28:47.842Z,1010.98
2018-05-12T04:29:47.827Z,1010.97
2018-05-12T04:30:47.812Z,1010.93
2018-05-12T04:31:47.799Z,1010.95
2018-05-12T04:32:47.780Z,1010.95
2018-05-12T04:33:47.768Z,1010.96
2018-05-12T04:34:47.758Z,1010.95
2018-05-12T04:35:47.736Z,1010.97
2018-05-12T04:36:47.720Z,1010.97
2018-05-12T04:37:47.703Z,1010.98
2018-05-12T04:38:47.690Z,1010.93
2018-05-12T04:39:47.679Z,1010.96
2018-05-12T04:40:47.664Z,1010.95
2018-05-12T04:41:47.651Z,1010.94
2018-05-12T04:42:47.626Z,1010.92
2018-05-12T04:43:47.613Z,1010.97
2018-05-12T04:44:47.605Z,1010.96
2018-05-12T04:45:47.581Z,1010.95
2018-05-12T04:46:47.568Z,1010.96
2018-05-12T04:47:47.551Z,1010.97
2018-05-12T04:48:47.536Z,1010.98
2018-05-12T04:49:47.524Z,1010.95
2018-05-12T04:50:47.504Z,1010.93
2018-05-12T04:51:47.496Z,1010.94
2018-05-12T04:52:47.477Z,1010.94
2018-05-12T04:53:47.459Z,1010.90
2018-05-12T04:54:47.451Z,1010.94
2018-05-12T04:55:47.441Z,1010.91
2018-05-12T04:56:47.419Z,1010.96
2018-05-12T04:57:47.402Z,1011.00
2018-05-12T04:58:47.387Z,1010.99
2018-05-12T04:59:47.366Z,1010.96
2018-05-12T05:00:47.355Z,1010.96
2018-05-12T05:01:47.337Z,1010.98
2018-05-12T05:02:47.326Z,1010.97
2018-05-12T05:03:47.305Z,1011.02
2018-05-12T05:04:47.290Z,1011.04
2018-05-12T05:05:47.280Z,1011.05
2018-05-12T05:06:47.269Z,1010.97
2018-05-12T05:07:47.247Z,1011.00
2018-05-12T05:08:47.230Z,1011.00
2018-05-12T05:09:47.231Z,1010.99
2018-05-12T05:10:47.208Z,1010.97
2018-05-12T05:11:47.184Z,1011.00
2018-05-12T05:12:47.169Z,1010.98
2018-05-12T05:13:47.207Z,1011.01
2018-05-12T05:14:47.138Z,1011.03
2018-05-12T05:15:47.125Z,1011.02
2018-05-12T05:16:47.109Z,1011.05
2018-05-12T05:17:47.096Z,1011.02
2018-05-12T05:18:47.080Z,1011.05
2018-05-12T05:19:47.064Z,1011.06
2018-05-12T05:20:47.056Z,1011.04
2018-05-12T05:21:47.043Z,1011.07
2018-05-12T05:22:47.019Z,1011.06
2018-05-12T05:23:47.004Z,1011.05
2018-05-12T05:24:46.988Z,1011.01
2018-05-12T05:25:46.976Z,1011.06
2018-05-12T05:26:46.958Z,1011.09
2018-05-12T05:27:46.944Z,1011.09
2018-05-12T05:28:46.930Z,1011.38
2018-05-12T05:29:46.922Z,1011.58
2018-05-12T05:30:46.901Z,1011.61
2018-05-12T05:31:46.885Z,1011.65
2018-05-12T05:32:46.871Z,1011.68
2018-05-12T05:33:46.863Z,1011.75
2018-05-12T05:34:46.842Z,1011.70
2018-05-12T05:35:46.828Z,1011.73
2018-05-12T05:36:46.818Z,1011.71
2018-05-12T05:37:46.800Z,1011.70
2018-05-12T05:38:46.788Z,1011.73
2018-05-12T05:39:46.775Z,1011.76
2018-05-12T05:40:46.762Z,1011.80
2018-05-12T05:41:46.777Z,1011.86
2018-05-12T05:42:46.740Z,1011.87
2018-05-12T05:43:46.728Z,1011.84
2018-05-12T05:44:46.715Z,1011.88
2018-05-12T05:45:46.704Z,1011.85
2018-05-12T05:46:46.694Z,1011.86
2018-05-12T05:47:46.683Z,1011.90
2018-05-12T05:48:46.721Z,1011.90
2018-05-12T05:49:46.670Z,1011.91
2018-05-12T05:50:46.651Z,1011.83
2018-05-12T05:51:46.643Z,1011.91
2018-05-12T05:52:46.635Z,1011.92
2018-05-12T05:53:46.623Z,1011.87
2018-05-12T05:54:46.613Z,1011.87
2018-05-12T05:55:46.613Z,1011.84
2018-05-12T05:56:46.608Z,1011.80
2018-05-12T05:57:46.590Z,1011.80
2018-05-12T05:58:46.580Z,1011.74
2018-05-12T05:59:46.573Z,1011.67
2018-05-12T06:00:46.571Z,1011.73
2018-05-12T06:01:46.567Z,1011.71
2018-05-12T06:02:46.548Z,1011.75
2018-05-12T06:03:46.548Z,1011.76
2018-05-12T06:04:46.534Z,1011.73
2018-05-12T06:05:46.524Z,1011.69
2018-05-12T06:06:46.541Z,1011.73
2018-05-12T06:07:46.511Z,1011.72
2018-05-12T06:08:46.506Z,1011.67
2018-05-12T06:09:46.659Z,1011.64
2018-05-12T06:10:46.489Z,1011.62
2018-05-12T06:11:46.485Z,1011.59
2018-05-12T06:12:46.476Z,1011.58
2018-05-12T06:13:46.469Z,1011.62
2018-05-12T06:14:46.481Z,1011.62
2018-05-12T06:15:46.460Z,1011.63
2018-05-12T06:16:46.450Z,1011.64
2018-05-12T06:17:46.444Z,1011.61
2018-05-12T06:18:46.445Z,1011.52
2018-05-12T06:19:46.429Z,1011.58
2018-05-12T06:20:46.424Z,1011.62
2018-05-12T06:21:46.425Z,1011.56
2018-05-12T06:22:46.410Z,1011.60
2018-05-12T06:23:46.430Z,1011.56
2018-05-12T06:24:46.400Z,1011.53
2018-05-12T06:25:46.492Z,1011.51
2018-05-12T06:26:46.387Z,1011.50
2018-05-12T06:27:46.467Z,1011.53
2018-05-12T06:28:46.374Z,1011.63
2018-05-12T06:29:46.374Z,1011.63
2018-05-12T06:30:46.369Z,1011.68
2018-05-12T06:31:46.363Z,1011.62
2018-05-12T06:32:46.356Z,1011.65
2018-05-12T06:33:46.352Z,1011.51
2018-05-12T06:34:46.347Z,1011.56
2018-05-12T06:35:46.355Z,1011.52
2018-05-12T06:36:46.343Z,1011.52
2018-05-12T06:37:46.329Z,1011.47
2018-05-12T06:38:46.324Z,1011.51
2018-05-12T06:39:46.321Z,1011.46
2018-05-12T06:40:46.312Z,1011.49
2018-05-12T06:41:46.312Z,1011.52
2018-05-12T06:42:46.305Z,1011.55
2018-05-12T06:43:46.305Z,1011.54
2018-05-12T06:44:46.292Z,1011.63
2018-05-12T06:45:46.287Z,1011.53
2018-05-12T06:46:46.286Z,1011.51
2018-05-12T06:47:46.283Z,1011.52
2018-05-12T06:48:46.276Z,1011.50
2018-05-12T06:49:46.265Z,1011.48
2018-05-12T06:50:46.270Z,1011.49
2018-05-12T06:51:46.252Z,1011.46
2018-05-12T06:52:46.317Z,1011.51
2018-05-12T06:53:46.241Z,1011.45
2018-05-12T06:54:46.233Z,1011.44
2018-05-12T06:55:46.235Z,1011.50
2018-05-12T06:56:46.220Z,1011.48
2018-05-12T06:57:46.214Z,1011.50
2018-05-12T06:58:46.208Z,1011.52
2018-05-12T06:59:46.201Z,1011.47
2018-05-12T07:00:46.193Z,1011.47
2018-05-12T07:01:46.189Z,1011.48
2018-05-12T07:02:46.187Z,1011.52
2018-05-12T07:03:46.172Z,1011.47
2018-05-12T07:04:46.168Z,1011.42
2018-05-12T07:05:46.161Z,1011.42
2018-05-12T07:06:46.153Z,1011.55
2018-05-12T07:07:46.145Z,1011.48
2018-05-12T07:08:46.138Z,1011.40
2018-05-12T07:09:46.139Z,1011.40
2018-05-12T07:10:46.122Z,1011.33
2018-05-12T07:11:46.115Z,1011.38
2018-05-12T07:12:46.109Z,1011.41
2018-05-12T07:13:46.102Z,1011.45
2018-05-12T07:14:46.097Z,1011.34
2018-05-12T07:15:46.090Z,1011.39
2018-05-12T07:16:46.083Z,1011.40
2018-05-12T07:17:46.071Z,1011.42
2018-05-12T07:18:46.064Z,1011.32
2018-05-12T07:19:46.056Z,1011.28
2018-05-12T07:20:46.048Z,1011.34
2018-05-12T07:21:46.038Z,1011.31
2018-05-12T07:22:46.031Z,1011.30
2018-05-12T07:23:46.022Z,1011.36
2018-05-12T07:24:46.023Z,1011.30
2018-05-12T07:25:46.008Z,1011.29
2018-05-12T07:26:46.000Z,1011.35
2018-05-12T07:27:45.995Z,1011.35
2018-05-12T07:28:45.994Z,1011.34
2018-05-12T07:29:46.054Z,1011.35
2018-05-12T07:30:45.975Z,1011.36
2018-05-12T07:31:45.960Z,1011.32
2018-05-12T07:32:45.954Z,1011.32
2018-05-12T07:33:45.938Z,1011.30
2018-05-12T07:34:45.941Z,1011.30
2018-05-12T07:35:45.922Z,1011.29
2018-05-12T07:36:45.912Z,1011.30
2018-05-12T07:37:45.906Z,1011.30
2018-05-12T07:38:45.898Z,1011.33
2018-05-12T07:39:45.888Z,1011.28
2018-05-12T07:40:45.876Z,1011.31
2018-05-12T07:41:45.869Z,1011.30
2018-05-12T07:42:45.861Z,1011.32
2018-05-12T07:43:45.860Z,1011.30
2018-05-12T07:44:45.849Z,1011.26
2018-05-12T07:45:45.838Z,1011.28
2018-05-12T07:46:45.825Z,1011.33
2018-05-12T07:47:45.821Z,1011.32
2018-05-12T07:48:45.814Z,1011.27
2018-05-12T07:49:45.801Z,1011.26
2018-05-12T07:50:45.790Z,1011.28
2018-05-12T07:51:45.782Z,1011.26
2018-05-12T07:52:45.773Z,1011.26
2018-05-12T07:53:45.776Z,1011.27
2018-05-12T07:54:45.761Z,1011.27
2018-05-12T07:55:45.858Z,1011.27
2018-05-12T07:56:45.748Z,1011.26
2018-05-12T07:57:45.733Z,1011.30
2018-05-12T07:58:45.722Z,1011.29
2018-05-12T07:59:45.714Z,1011.28
2018-05-12T08:00:45.707Z,1011.28
2018-05-12T08:01:45.697Z,1011.27
2018-05-12T08:02:45.692Z,1011.29
2018-05-12T08:03:45.690Z,1011.23
2018-05-12T08:04:45.673Z,1011.22
2018-05-12T08:05:45.675Z,1011.24
2018-05-12T08:06:45.661Z,1011.21
2018-05-12T08:07:45.654Z,1011.18
2018-05-12T08:08:45.638Z,1011.17
2018-05-12T08:09:45.640Z,1011.17
2018-05-12T08:10:45.622Z,1011.18
2018-05-12T08:11:45.618Z,1011.15
2018-05-12T08:12:45.680Z,1011.13
2018-05-12T08:13:45.599Z,1011.11
2018-05-12T08:14:45.587Z,1011.11
2018-05-12T08:15:45.578Z,1011.10
2018-05-12T08:16:45.579Z,1011.08
2018-05-12T08:17:45.569Z,1011.10
2018-05-12T08:18:45.553Z,1011.08
2018-05-12T08:19:45.544Z,1011.06
2018-05-12T08:20:45.534Z,1011.03
2018-05-12T08:21:45.523Z,1011.04
2018-05-12T08:22:45.516Z,1011.04
2018-05-12T08:23:45.507Z,1011.00
2018-05-12T08:24:45.497Z,1011.03
2018-05-12T08:25:45.487Z,1011.02
2018-05-12T08:26:45.560Z,1011.01
2018-05-12T08:27:45.470Z,1011.02
2018-05-12T08:28:45.461Z,1010.99
2018-05-12T08:29:45.451Z,1010.98
2018-05-12T08:30:45.443Z,1010.96
2018-05-12T08:31:45.434Z,1010.95
2018-05-12T08:32:45.430Z,1010.95
2018-05-12T08:33:45.416Z,1010.91
2018-05-12T08:34:45.406Z,1010.90
2018-05-12T08:35:45.399Z,1010.92
2018-05-12T08:36:45.396Z,1011.00
2018-05-12T08:37:45.386Z,1011.00
2018-05-12T08:38:45.369Z,1010.94
2018-05-12T08:39:45.360Z,1010.96
2018-05-12T08:40:45.359Z,1010.94
2018-05-12T08:41:45.342Z,1010.84
2018-05-12T08:42:45.333Z,1010.89
2018-05-12T08:43:45.334Z,1010.85
2018-05-12T08:44:45.312Z,1010.85
2018-05-12T08:45:45.311Z,1010.82
2018-05-12T08:46:45.299Z,1010.83
2018-05-12T08:47:45.294Z,1010.82
2018-05-12T08:48:45.276Z,1010.76
2018-05-12T08:49:45.268Z,1010.80
2018-05-12T08:50:45.258Z,1010.80
2018-05-12T08:51:45.265Z,1010.76
2018-05-12T08:52:45.240Z,1010.79
2018-05-12T08:53:45.231Z,1010.73
2018-05-12T08:54:45.223Z,1010.71
2018-05-12T08:55:45.215Z,1010.75
2018-05-12T08:56:45.213Z,1010.75
2018-05-12T08:57:45.205Z,1010.73
2018-05-12T08:58:45.187Z,1010.73
2018-05-12T08:59:45.177Z,1010.72
2018-05-12T09:00:45.170Z,1010.73
2018-05-12T09:01:45.171Z,1010.69
2018-05-12T09:02:45.154Z,1010.74
2018-05-12T09:03:45.139Z,1010.71
2018-05-12T09:04:45.131Z,1010.79
2018-05-12T09:05:45.121Z,1010.84
2018-05-12T09:06:45.113Z,1010.92
2018-05-12T09:07:45.106Z,1010.98
2018-05-12T09:08:45.098Z,1010.93
2018-05-12T09:09:45.085Z,1011.00
2018-05-12T09:10:45.081Z,1010.96
2018-05-12T09:11:45.070Z,1010.84
2018-05-12T09:12:45.058Z,1010.78
2018-05-12T09:13:45.064Z,1010.74
2018-05-12T09:14:45.053Z,1010.85
2018-05-12T09:15:45.042Z,1010.72
2018-05-12T09:16:45.030Z,1010.87
2018-05-12T09:17:45.022Z,1010.88
2018-05-12T09:18:45.015Z,1010.89
2018-05-12T09:19:45.007Z,1010.79
2018-05-12T09:20:44.997Z,1010.93
2018-05-12T09:21:44.990Z,1010.76
2018-05-12T09:22:44.995Z,1010.71
2018-05-12T09:23:44.977Z,1010.73
2018-05-12T09:24:44.967Z,1010.76
2018-05-12T09:25:44.960Z,1010.73
2018-05-12T09:26:44.960Z,1010.81
2018-05-12T09:27:44.945Z,1010.79
2018-05-12T09:28:44.944Z,1010.64
2018-05-12T09:29:44.939Z,1010.67
2018-05-12T09:30:44.922Z,1010.66
2018-05-12T09:31:44.933Z,1010.75
2018-05-12T09:32:44.906Z,1010.72
2018-05-12T09:33:44.913Z,1010.78
2018-05-12T09:34:44.892Z,1010.85
2018-05-12T09:35:44.887Z,1010.92
2018-05-12T09:36:44.878Z,1010.71
2018-05-12T09:37:44.879Z,1010.91
2018-05-12T09:38:44.869Z,1010.85
2018-05-12T09:39:44.858Z,1010.93
2018-05-12T09:40:44.858Z,1010.96
2018-05-12T09:41:44.851Z,1010.93
2018-05-12T09:42:44.840Z,1010.81
2018-05-12T09:43:44.848Z,1010.81
2018-05-12T09:44:44.845Z,1010.85
2018-05-12T09:45:44.838Z,1010.80
2018-05-12T09:46:44.819Z,1010.73
2018-05-12T09:47:44.815Z,1010.82
2018-05-12T09:48:44.819Z,1010.83
2018-05-12T09:49:44.808Z,1010.85
2018-05-12T09:50:44.808Z,1010.82
2018-05-12T09:51:44.806Z,1010.77
2018-05-12T09:52:44.800Z,1010.79
2018-05-12T09:53:44.807Z,1010.77
2018-05-12T09:54:44.795Z,1010.76
2018-05-12T09:55:44.803Z,1010.69
2018-05-12T09:56:44.797Z,1010.67
2018-05-12T09:57:44.798Z,1010.69
2018-05-12T09:58:44.802Z,1010.68
2018-05-12T09:59:44.791Z,1010.67
2018-05-12T10:00:44.808Z,1010.60
2018-05-12T10:01:44.792Z,1010.59
2018-05-12T10:02:44.794Z,1010.55
2018-05-12T10:03:44.794Z,1010.43
2018-05-12T10:04:44.796Z,1010.45
2018-05-12T10:05:44.796Z,1010.48
2018-05-12T10:06:44.801Z,1010.52
2018-05-12T10:07:44.797Z,1010.53
2018-05-12T10:08:44.796Z,1010.51
2018-05-12T10:09:44.828Z,1010.42
2018-05-12T10:10:44.800Z,1010.40
2018-05-12T10:11:44.798Z,1010.40
2018-05-12T10:12:44.900Z,1010.39
2018-05-12T10:13:44.802Z,1010.39
2018-05-12T10:14:44.802Z,1010.34
2018-05-12T10:15:44.811Z,1010.26
2018-05-12T10:16:44.807Z,1010.24
2018-05-12T10:17:44.805Z,1010.29
2018-05-12T10:18:44.960Z,1010.24
2018-05-12T10:19:44.810Z,1010.12
2018-05-12T10:20:44.814Z,1010.14
2018-05-12T10:21:44.817Z,1010.30
2018-05-12T10:22:44.820Z,1010.16
2018-05-12T10:23:44.824Z,1010.15
2018-05-12T10:24:44.836Z,1010.20
2018-05-12T10:25:44.830Z,1010.14
2018-05-12T10:26:44.834Z,1010.10
2018-05-12T10:27:44.838Z,1010.35
2018-05-12T10:28:44.840Z,1010.34
2018-05-12T10:29:44.843Z,1010.37
2018-05-12T10:30:44.847Z,1010.37
2018-05-12T10:31:44.909Z,1010.29
2018-05-12T10:32:44.852Z,1010.09
2018-05-12T10:33:44.855Z,1010.01
2018-05-12T10:34:44.861Z,1010.03
2018-05-12T10:35:44.862Z,1010.06
2018-05-12T10:36:44.969Z,1010.11
2018-05-12T10:37:44.878Z,1010.09
2018-05-12T10:38:44.864Z,1010.15
2018-05-12T10:39:44.869Z,1010.29
2018-05-12T10:40:44.876Z,1010.21
2018-05-12T10:41:44.872Z,1010.25
2018-05-12T10:42:44.873Z,1010.20
2018-05-12T10:43:44.873Z,1010.17
2018-05-12T10:44:44.881Z,1010.20
2018-05-12T10:45:47.496Z,1010.20
2018-05-12T10:46:44.875Z,1010.21
2018-05-12T10:47:44.875Z,1010.22
2018-05-12T10:48:44.874Z,1010.11
2018-05-12T10:49:44.974Z,1010.14
2018-05-12T10:50:44.878Z,1010.14
2018-05-12T10:51:44.874Z,1010.15
2018-05-12T10:52:44.870Z,1010.10
2018-05-12T10:53:44.867Z,1010.10
2018-05-12T10:54:44.864Z,1010.13
2018-05-12T10:55:44.862Z,1010.13
2018-05-12T10:56:44.860Z,1010.14
2018-05-12T10:57:44.861Z,1010.22
2018-05-12T10:58:44.856Z,1010.17
2018-05-12T10:59:44.855Z,1010.24
2018-05-12T11:00:44.853Z,1010.21
2018-05-12T11:01:44.861Z,1010.23
2018-05-12T11:02:44.900Z,1010.22
2018-05-12T11:03:44.849Z,1010.28
2018-05-12T11:04:44.846Z,1010.35
2018-05-12T11:05:44.855Z,1009.99
2018-05-12T11:06:44.849Z,1010.23
2018-05-12T11:07:44.849Z,1010.22
2018-05-12T11:08:44.847Z,1010.21
2018-05-12T11:09:44.869Z,1010.30
2018-05-12T11:10:44.853Z,1010.26
2018-05-12T11:11:44.851Z,1010.26
2018-05-12T11:12:44.845Z,1010.27
2018-05-12T11:13:44.846Z,1010.32
2018-05-12T11:14:44.846Z,1010.27
2018-05-12T11:15:44.912Z,1010.22
2018-05-12T11:16:44.847Z,1010.20
2018-05-12T11:17:44.862Z,1010.19
2018-05-12T11:18:44.849Z,1010.22
2018-05-12T11:19:44.858Z,1010.26
2018-05-12T11:20:44.861Z,1010.38
2018-05-12T11:21:44.906Z,1010.37
2018-05-12T11:22:44.851Z,1010.43
2018-05-12T11:23:44.853Z,1010.49
2018-05-12T11:24:44.855Z,1009.74
2018-05-12T11:25:44.855Z,1009.72
2018-05-12T11:26:44.895Z,1009.73
2018-05-12T11:27:44.865Z,1010.03
2018-05-12T11:28:44.867Z,1009.68
2018-05-12T11:29:44.875Z,1009.70
2018-05-12T11:30:44.859Z,1010.41
2018-05-12T11:31:44.862Z,1010.40
2018-05-12T11:32:44.857Z,1010.36
2018-05-12T11:33:44.859Z,1010.18
2018-05-12T11:34:44.861Z,1010.16
2018-05-12T11:35:44.867Z,1010.09
2018-05-12T11:36:44.860Z,1010.00
2018-05-12T11:37:44.857Z,1010.01
2018-05-12T11:38:44.949Z,1009.99
2018-05-12T11:39:44.866Z,1009.97
2018-05-12T11:40:44.856Z,1009.98
2018-05-12T11:41:44.863Z,1009.92
2018-05-12T11:42:44.854Z,1009.82
2018-05-12T11:43:44.866Z,1009.76
2018-05-12T11:44:44.946Z,1009.70
2018-05-12T11:45:44.855Z,1009.64
2018-05-12T11:46:44.849Z,1009.63
2018-05-12T11:47:44.856Z,1009.55
2018-05-12T11:48:44.855Z,1009.54
2018-05-12T11:49:44.844Z,1009.48
2018-05-12T11:50:44.840Z,1009.52
2018-05-12T11:51:44.838Z,1009.48
2018-05-12T11:52:44.835Z,1009.47
2018-05-12T11:53:44.844Z,1009.50
2018-05-12T11:54:44.837Z,1009.42
2018-05-12T11:55:44.827Z,1009.43
2018-05-12T11:56:44.823Z,1009.47
2018-05-12T11:57:44.822Z,1009.47
2018-05-12T11:58:44.817Z,1009.45
2018-05-12T11:59:44.820Z,1009.42
2018-05-12T12:00:44.813Z,1009.41
2018-05-12T12:01:44.808Z,1009.34
2018-05-12T12:02:44.797Z,1009.26
2018-05-12T12:03:44.846Z,1009.27
2018-05-12T12:04:44.786Z,1009.26
2018-05-12T12:05:44.779Z,1009.20